Time,TemperatureF,DewpointF,PressureIn,WindDirection,WindDirectionDegrees,WindSpeedMPH,WindSpeedGustMPH,Humidity,HourlyPrecipIn,Conditions,Clouds,dailyrainin,SoftwareType,DateUTC
2013-02-21 00:12:00,16.9,16.4,29.99,West,270,4.2,-999.0,98,-99.99,,,0.00,Acu-Link.com,2013-02-21 05:12:00,
2013-02-21 01:07:00,16.9,16.4,29.98,West,270,10.9,-999.0,98,-99.99,,,0.00,Acu-Link.com,2013-02-21 06:07:00,
2013-02-21 01:36:00,16.9,16.4,29.98,NNW,337,6.3,-999.0,98,-99.99,,,0.00,Acu-Link.com,2013-02-21 06:36:00,
2013-02-21 01:57:00,16.9,16.4,29.99,NNW,337,7.8,-999.0,98,-99.99,,,0.00,Acu-Link.com,2013-02-21 06:57:00,
2013-02-21 02:21:00,16.5,16.0,30.00,West,270,7.8,-999.0,98,-99.99,,,0.00,Acu-Link.com,2013-02-21 07:21:00,
2013-02-21 02:37:00,16.5,16.0,30.00,West,270,8.3,-999.0,98,-99.99,,,0.00,Acu-Link.com,2013-02-21 07:37:00,
2013-02-21 02:56:00,16.5,16.0,30.00,SW,225,7.8,-999.0,98,-99.99,,,0.00,Acu-Link.com,2013-02-21 07:56:00,
2013-02-21 03:21:00,16.3,15.8,30.01,WSW,247,4.2,-999.0,98,-99.99,,,0.00,Acu-Link.com,2013-02-21 08:21:00,
2013-02-21 03:39:00,16.3,15.8,30.00,NW,315,10.9,-999.0,98,-99.99,,,0.01,Acu-Link.com,2013-02-21 08:39:00,
2013-02-21 03:57:00,16.3,15.8,30.01,SSW,202,4.7,-999.0,98,-99.99,,,0.01,Acu-Link.com,2013-02-21 08:57:00,
2013-02-21 04:24:00,16.3,15.8,30.01,SSW,202,8.9,-999.0,98,-99.99,,,0.01,Acu-Link.com,2013-02-21 09:24:00,
2013-02-21 04:42:00,16.3,15.8,30.01,NW,315,11.9,-999.0,98,-99.99,,,0.01,Acu-Link.com,2013-02-21 09:42:00,
2013-02-21 05:00:00,16.7,16.2,30.01,West,270,5.3,-999.0,98,-99.99,,,0.01,Acu-Link.com,2013-02-21 10:00:00,
2013-02-21 05:16:00,16.7,16.2,30.02,SSE,157,3.2,-999.0,98,-99.99,,,0.01,Acu-Link.com,2013-02-21 10:16:00,
2013-02-21 05:35:00,16.7,16.2,30.02,WNW,292,2.7,-999.0,98,-99.99,,,0.01,Acu-Link.com,2013-02-21 10:35:00,
2013-02-21 05:57:00,17.2,14.3,30.03,NNW,337,2.2,-999.0,88,-99.99,,,0.01,Acu-Link.com,2013-02-21 10:57:00,
2013-02-21 06:15:00,17.4,16.9,30.04,SW,225,4.2,-999.0,98,-99.99,,,0.01,Acu-Link.com,2013-02-21 11:15:00,
2013-02-21 06:40:00,17.4,16.9,30.04,West,270,5.3,-999.0,98,-99.99,,,0.01,Acu-Link.com,2013-02-21 11:40:00,
2013-02-21 07:04:00,17.4,16.9,30.06,NW,315,13.0,-999.0,98,-99.99,,,0.01,Acu-Link.com,2013-02-21 12:04:00,
2013-02-21 07:21:00,17.1,16.6,30.06,WSW,247,7.8,-999.0,98,-99.99,,,0.01,Acu-Link.com,2013-02-21 12:21:00,
2013-02-21 07:38:00,17.2,16.7,30.07,WSW,247,13.0,-999.0,98,-99.99,,,0.01,Acu-Link.com,2013-02-21 12:38:00,
2013-02-21 07:54:00,17.2,16.7,30.07,NE,45,10.9,-999.0,98,-99.99,,,0.01,Acu-Link.com,2013-02-21 12:54:00,
2013-02-21 08:09:00,17.1,14.9,30.07,WSW,247,7.3,-999.0,91,-99.99,,,0.01,Acu-Link.com,2013-02-21 13:09:00,
2013-02-21 08:27:00,17.2,15.3,30.08,SSW,202,2.7,-999.0,92,-99.99,,,0.01,Acu-Link.com,2013-02-21 13:27:00,
2013-02-21 08:44:00,17.8,14.1,30.08,WSW,247,4.2,-999.0,85,-99.99,,,0.01,Acu-Link.com,2013-02-21 13:44:00,
2013-02-21 09:00:00,19.0,14.4,30.07,WSW,247,5.3,-999.0,82,-99.99,,,0.01,Acu-Link.com,2013-02-21 14:00:00,
2013-02-21 09:17:00,19.6,15.0,30.08,SW,225,13.5,-999.0,82,-99.99,,,0.01,Acu-Link.com,2013-02-21 14:17:00,
2013-02-21 09:34:00,21.9,17.5,30.09,West,270,13.0,-999.0,83,-99.99,,,0.01,Acu-Link.com,2013-02-21 14:34:00,
2013-02-21 09:56:00,20.3,16.0,30.09,West,270,9.9,-999.0,83,-99.99,,,0.01,Acu-Link.com,2013-02-21 14:56:00,
2013-02-21 10:11:00,19.9,14.2,30.10,West,270,6.3,-999.0,78,-99.99,,,0.01,Acu-Link.com,2013-02-21 15:11:00,
2013-02-21 10:28:00,19.8,15.2,30.10,WSW,247,8.3,-999.0,82,-99.99,,,0.01,Acu-Link.com,2013-02-21 15:28:00,
2013-02-21 10:45:00,20.8,15.3,30.09,WNW,292,7.8,-999.0,79,-99.99,,,0.01,Acu-Link.com,2013-02-21 15:45:00,
2013-02-21 11:02:00,22.5,15.5,30.09,SSW,202,10.9,-999.0,74,-99.99,,,0.01,Acu-Link.com,2013-02-21 16:02:00,
2013-02-21 11:17:00,22.6,17.4,30.08,WSW,247,6.3,-999.0,80,-99.99,,,0.01,Acu-Link.com,2013-02-21 16:17:00,
2013-02-21 11:34:00,23.7,19.0,30.09,WNW,292,6.8,-999.0,82,-99.99,,,0.01,Acu-Link.com,2013-02-21 16:34:00,
2013-02-21 11:50:00,23.4,18.4,30.10,West,270,8.9,-999.0,81,-99.99,,,0.01,Acu-Link.com,2013-02-21 16:50:00,
2013-02-21 12:07:00,24.1,19.1,30.10,SW,225,11.4,-999.0,81,-99.99,,,0.01,Acu-Link.com,2013-02-21 17:07:00,
2013-02-21 12:23:00,23.7,18.7,30.10,WNW,292,8.3,-999.0,81,-99.99,,,0.01,Acu-Link.com,2013-02-21 17:23:00,
2013-02-21 12:41:00,24.6,19.3,30.10,West,270,7.8,-999.0,80,-99.99,,,0.01,Acu-Link.com,2013-02-21 17:41:00,
2013-02-21 12:56:00,25.7,18.9,30.10,West,270,9.4,-999.0,75,-99.99,,,0.01,Acu-Link.com,2013-02-21 17:56:00,
2013-02-21 13:13:00,24.6,19.9,30.09,SW,225,6.8,-999.0,82,-99.99,,,0.01,Acu-Link.com,2013-02-21 18:13:00,
2013-02-21 13:33:00,24.3,21.0,30.10,West,270,3.2,-999.0,87,-99.99,,,0.01,Acu-Link.com,2013-02-21 18:33:00,
2013-02-21 13:49:00,23.7,20.9,30.10,West,270,4.2,-999.0,89,-99.99,,,0.01,Acu-Link.com,2013-02-21 18:49:00,
2013-02-21 14:05:00,23.9,21.4,30.11,WSW,247,7.8,-999.0,90,-99.99,,,0.01,Acu-Link.com,2013-02-21 19:05:00,
2013-02-21 14:24:00,24.6,22.1,30.11,WNW,292,8.9,-999.0,90,-99.99,,,0.01,Acu-Link.com,2013-02-21 19:24:00,
2013-02-21 14:50:00,25.9,22.6,30.12,West,270,5.3,-999.0,87,-99.99,,,0.01,Acu-Link.com,2013-02-21 19:50:00,
2013-02-21 15:07:00,25.3,22.0,30.13,SW,225,5.3,-999.0,87,-99.99,,,0.01,Acu-Link.com,2013-02-21 20:07:00,
2013-02-21 15:22:00,24.1,21.9,30.12,WSW,247,7.3,-999.0,91,-99.99,,,0.01,Acu-Link.com,2013-02-21 20:22:00,
2013-02-21 15:38:00,25.5,21.6,30.12,SW,225,4.7,-999.0,85,-99.99,,,0.01,Acu-Link.com,2013-02-21 20:38:00,
2013-02-21 15:54:00,26.1,22.2,30.11,SW,225,5.3,-999.0,85,-99.99,,,0.01,Acu-Link.com,2013-02-21 20:54:00,
2013-02-21 16:15:00,25.9,21.7,30.11,WSW,247,8.3,-999.0,84,-99.99,,,0.01,Acu-Link.com,2013-02-21 21:15:00,
2013-02-21 16:38:00,24.8,21.8,30.13,WSW,247,4.2,-999.0,88,-99.99,,,0.01,Acu-Link.com,2013-02-21 21:38:00,
2013-02-21 16:55:00,24.1,21.6,30.13,SW,225,4.7,-999.0,90,-99.99,,,0.01,Acu-Link.com,2013-02-21 21:55:00,
2013-02-21 17:11:00,23.4,21.2,30.15,SW,225,5.8,-999.0,91,-99.99,,,0.01,Acu-Link.com,2013-02-21 22:11:00,
2013-02-21 17:26:00,22.5,21.0,30.15,SW,225,2.7,-999.0,94,-99.99,,,0.01,Acu-Link.com,2013-02-21 22:26:00,
2013-02-21 17:50:00,21.4,20.9,30.18,SW,225,9.4,-999.0,98,-99.99,,,0.01,Acu-Link.com,2013-02-21 22:50:00,
2013-02-21 18:07:00,21.2,20.7,30.19,West,270,0.0,-999.0,98,-99.99,,,0.01,Acu-Link.com,2013-02-21 23:07:00,
2013-02-21 18:24:00,21.0,20.5,30.20,West,270,0.0,-999.0,98,-99.99,,,0.01,Acu-Link.com,2013-02-21 23:24:00,
2013-02-21 18:40:00,20.3,19.8,30.20,SSW,202,3.7,-999.0,98,-99.99,,,0.01,Acu-Link.com,2013-02-21 23:40:00,
2013-02-21 18:55:00,19.9,19.4,30.21,West,270,0.0,-999.0,98,-99.99,,,0.01,Acu-Link.com,2013-02-21 23:55:00,
2013-02-21 19:15:00,19.4,18.9,30.22,SE,135,0.0,-999.0,98,-99.99,,,0.01,Acu-Link.com,2013-02-22 00:15:00,
2013-02-21 19:31:00,18.0,17.5,30.21,SE,135,0.0,-999.0,98,-99.99,,,0.01,Acu-Link.com,2013-02-22 00:31:00,
2013-02-21 19:48:00,18.0,17.5,30.21,ESE,112,0.0,-999.0,98,-99.99,,,0.01,Acu-Link.com,2013-02-22 00:48:00,
2013-02-21 20:03:00,16.5,16.0,30.20,SE,135,0.0,-999.0,98,-99.99,,,0.01,Acu-Link.com,2013-02-22 01:03:00,
2013-02-21 20:21:00,16.2,15.7,30.20,SE,135,0.0,-999.0,98,-99.99,,,0.01,Acu-Link.com,2013-02-22 01:21:00,
2013-02-21 20:37:00,15.8,15.3,30.20,ESE,112,0.0,-999.0,98,-99.99,,,0.01,Acu-Link.com,2013-02-22 01:37:00,
2013-02-21 20:52:00,15.4,13.7,30.19,ESE,112,0.0,-999.0,93,-99.99,,,0.01,Acu-Link.com,2013-02-22 01:52:00,
2013-02-21 21:09:00,15.6,13.7,30.18,ESE,112,0.0,-999.0,92,-99.99,,,0.01,Acu-Link.com,2013-02-22 02:09:00,
2013-02-21 21:27:00,14.7,11.8,30.20,ESE,112,4.2,-999.0,88,-99.99,,,0.01,Acu-Link.com,2013-02-22 02:27:00,
2013-02-21 21:42:00,14.2,10.8,30.18,SE,135,0.0,-999.0,86,-99.99,,,0.01,Acu-Link.com,2013-02-22 02:42:00,
2013-02-21 21:58:00,14.0,10.3,30.17,ESE,112,2.7,-999.0,85,-99.99,,,0.01,Acu-Link.com,2013-02-22 02:58:00,
2013-02-21 22:14:00,13.8,9.6,30.17,ESE,112,0.0,-999.0,83,-99.99,,,0.01,Acu-Link.com,2013-02-22 03:14:00,
2013-02-21 22:30:00,13.6,9.1,30.18,ESE,112,0.0,-999.0,82,-99.99,,,0.01,Acu-Link.com,2013-02-22 03:30:00,
2013-02-21 22:45:00,13.5,8.8,30.19,SW,225,0.0,-999.0,81,-99.99,,,0.01,Acu-Link.com,2013-02-22 03:45:00,
2013-02-21 23:00:00,13.3,8.3,30.19,ESE,112,0.0,-999.0,80,-99.99,,,0.01,Acu-Link.com,2013-02-22 04:00:00,
2013-02-21 23:18:00,13.3,8.0,30.18,East,90,0.0,-999.0,79,-99.99,,,0.01,Acu-Link.com,2013-02-22 04:18:00,
2013-02-21 23:35:00,13.3,7.5,30.17,ESE,112,0.0,-999.0,77,-99.99,,,0.01,Acu-Link.com,2013-02-22 04:35:00,
2013-02-21 23:53:00,13.5,7.7,30.15,NE,45,0.0,-999.0,77,-99.99,,,0.01,Acu-Link.com,2013-02-22 04:53:00,